sensor_id;sensor_type;location;lat;lon;timestamp;P1;durP1;ratioP1;P2;durP2;ratioP2
17614;SDS011;8926;49.720;6.576;2023-12-22T00:02:03;4.17;;;1.43;;
17614;SDS011;8926;49.720;6.576;2023-12-22T00:04:28;4.40;;;1.77;;
17614;SDS011;8926;49.720;6.576;2023-12-22T00:06:53;2.80;;;1.40;;
17614;SDS011;8926;49.720;6.576;2023-12-22T00:09:19;3.57;;;1.30;;
17614;SDS011;8926;49.720;6.576;2023-12-22T00:11:45;3.60;;;1.30;;
17614;SDS011;8926;49.720;6.576;2023-12-22T00:14:10;2.63;;;1.27;;
17614;SDS011;8926;49.720;6.576;2023-12-22T00:16:36;4.50;;;1.80;;
17614;SDS011;8926;49.720;6.576;2023-12-22T00:19:02;3.43;;;1.67;;
17614;SDS011;8926;49.720;6.576;2023-12-22T00:21:27;3.40;;;1.37;;
17614;SDS011;8926;49.720;6.576;2023-12-22T00:23:53;3.40;;;1.40;;
17614;SDS011;8926;49.720;6.576;2023-12-22T00:26:18;1.67;;;1.00;;
17614;SDS011;8926;49.720;6.576;2023-12-22T00:28:43;1.63;;;0.93;;
17614;SDS011;8926;49.720;6.576;2023-12-22T00:31:09;5.27;;;1.43;;
17614;SDS011;8926;49.720;6.576;2023-12-22T00:33:37;2.93;;;1.20;;
17614;SDS011;8926;49.720;6.576;2023-12-22T00:36:02;3.93;;;1.30;;
17614;SDS011;8926;49.720;6.576;2023-12-22T00:38:28;4.83;;;1.30;;
17614;SDS011;8926;49.720;6.576;2023-12-22T00:40:53;2.00;;;0.90;;
17614;SDS011;8926;49.720;6.576;2023-12-22T00:43:18;2.77;;;1.30;;
17614;SDS011;8926;49.720;6.576;2023-12-22T00:45:44;3.77;;;1.30;;
17614;SDS011;8926;49.720;6.576;2023-12-22T00:48:09;3.37;;;1.50;;
17614;SDS011;8926;49.720;6.576;2023-12-22T00:50:34;2.83;;;1.40;;
17614;SDS011;8926;49.720;6.576;2023-12-22T00:52:59;2.30;;;1.10;;
17614;SDS011;8926;49.720;6.576;2023-12-22T00:55:25;2.37;;;1.50;;
17614;SDS011;8926;49.720;6.576;2023-12-22T00:57:50;2.90;;;1.77;;
17614;SDS011;8926;49.720;6.576;2023-12-22T01:00:15;5.40;;;1.87;;
17614;SDS011;8926;49.720;6.576;2023-12-22T01:02:41;5.43;;;1.77;;
17614;SDS011;8926;49.720;6.576;2023-12-22T01:05:07;3.63;;;1.73;;
17614;SDS011;8926;49.720;6.576;2023-12-22T01:07:32;4.97;;;1.90;;
17614;SDS011;8926;49.720;6.576;2023-12-22T01:09:57;6.30;;;2.17;;
17614;SDS011;8926;49.720;6.576;2023-12-22T01:12:27;4.77;;;1.93;;
17614;SDS011;8926;49.720;6.576;2023-12-22T01:14:54;6.70;;;2.27;;
17614;SDS011;8926;49.720;6.576;2023-12-22T01:17:19;5.73;;;2.40;;
17614;SDS011;8926;49.720;6.576;2023-12-22T01:19:45;6.40;;;2.57;;
17614;SDS011;8926;49.720;6.576;2023-12-22T01:22:10;3.93;;;1.70;;
17614;SDS011;8926;49.720;6.576;2023-12-22T01:24:35;3.53;;;1.50;;
17614;SDS011;8926;49.720;6.576;2023-12-22T01:27:04;3.00;;;1.40;;
17614;SDS011;8926;49.720;6.576;2023-12-22T01:29:29;5.77;;;1.77;;
17614;SDS011;8926;49.720;6.576;2023-12-22T01:31:55;3.37;;;1.37;;
17614;SDS011;8926;49.720;6.576;2023-12-22T01:34:20;3.97;;;1.60;;
17614;SDS011;8926;49.720;6.576;2023-12-22T01:36:45;5.83;;;2.07;;
17614;SDS011;8926;49.720;6.576;2023-12-22T01:39:11;8.80;;;2.00;;
17614;SDS011;8926;49.720;6.576;2023-12-22T01:41:36;7.13;;;2.50;;
17614;SDS011;8926;49.720;6.576;2023-12-22T01:44:01;4.43;;;1.77;;
17614;SDS011;8926;49.720;6.576;2023-12-22T01:46:26;3.13;;;1.70;;
17614;SDS011;8926;49.720;6.576;2023-12-22T01:48:52;4.47;;;1.73;;
17614;SDS011;8926;49.720;6.576;2023-12-22T01:51:17;3.13;;;1.57;;
17614;SDS011;8926;49.720;6.576;2023-12-22T01:53:43;5.57;;;1.70;;
17614;SDS011;8926;49.720;6.576;2023-12-22T01:56:10;6.27;;;1.70;;
17614;SDS011;8926;49.720;6.576;2023-12-22T01:58:36;1.87;;;1.40;;
17614;SDS011;8926;49.720;6.576;2023-12-22T02:01:02;1.23;;;0.80;;
17614;SDS011;8926;49.720;6.576;2023-12-22T02:03:28;2.40;;;1.20;;
17614;SDS011;8926;49.720;6.576;2023-12-22T02:05:54;3.90;;;2.13;;
17614;SDS011;8926;49.720;6.576;2023-12-22T02:08:19;5.60;;;1.80;;
17614;SDS011;8926;49.720;6.576;2023-12-22T02:10:46;2.33;;;1.37;;
17614;SDS011;8926;49.720;6.576;2023-12-22T02:13:11;4.50;;;1.90;;
17614;SDS011;8926;49.720;6.576;2023-12-22T02:15:37;4.57;;;1.73;;
17614;SDS011;8926;49.720;6.576;2023-12-22T02:18:07;4.63;;;1.97;;
17614;SDS011;8926;49.720;6.576;2023-12-22T02:20:35;7.03;;;2.50;;
17614;SDS011;8926;49.720;6.576;2023-12-22T02:23:01;5.97;;;2.23;;
17614;SDS011;8926;49.720;6.576;2023-12-22T02:25:27;3.03;;;1.63;;
17614;SDS011;8926;49.720;6.576;2023-12-22T02:28:05;2.50;;;1.37;;
17614;SDS011;8926;49.720;6.576;2023-12-22T02:30:38;3.77;;;1.70;;
17614;SDS011;8926;49.720;6.576;2023-12-22T02:33:07;4.43;;;1.70;;
17614;SDS011;8926;49.720;6.576;2023-12-22T02:35:36;2.87;;;1.63;;
17614;SDS011;8926;49.720;6.576;2023-12-22T02:38:03;1.93;;;1.10;;
17614;SDS011;8926;49.720;6.576;2023-12-22T02:40:30;3.10;;;1.30;;
17614;SDS011;8926;49.720;6.576;2023-12-22T02:42:56;3.37;;;1.43;;
17614;SDS011;8926;49.720;6.576;2023-12-22T02:45:21;3.17;;;1.67;;
17614;SDS011;8926;49.720;6.576;2023-12-22T02:47:47;5.53;;;1.60;;
17614;SDS011;8926;49.720;6.576;2023-12-22T02:50:16;1.90;;;1.13;;
17614;SDS011;8926;49.720;6.576;2023-12-22T02:52:42;3.03;;;1.10;;
17614;SDS011;8926;49.720;6.576;2023-12-22T02:55:07;3.03;;;1.20;;
17614;SDS011;8926;49.720;6.576;2023-12-22T02:57:33;1.13;;;0.70;;
17614;SDS011;8926;49.720;6.576;2023-12-22T02:59:58;4.53;;;0.80;;
17614;SDS011;8926;49.720;6.576;2023-12-22T03:02:24;1.20;;;0.80;;
17614;SDS011;8926;49.720;6.576;2023-12-22T03:04:49;1.50;;;0.80;;
17614;SDS011;8926;49.720;6.576;2023-12-22T03:07:15;1.90;;;0.80;;
17614;SDS011;8926;49.720;6.576;2023-12-22T03:09:44;0.93;;;0.80;;
17614;SDS011;8926;49.720;6.576;2023-12-22T03:12:09;1.07;;;0.73;;
17614;SDS011;8926;49.720;6.576;2023-12-22T03:14:35;1.77;;;0.77;;
17614;SDS011;8926;49.720;6.576;2023-12-22T03:17:02;2.40;;;1.10;;
17614;SDS011;8926;49.720;6.576;2023-12-22T03:19:29;2.40;;;1.23;;
17614;SDS011;8926;49.720;6.576;2023-12-22T03:21:55;2.17;;;1.40;;
17614;SDS011;8926;49.720;6.576;2023-12-22T03:24:21;1.70;;;0.70;;
17614;SDS011;8926;49.720;6.576;2023-12-22T03:26:47;3.13;;;1.10;;
17614;SDS011;8926;49.720;6.576;2023-12-22T03:29:13;4.07;;;1.13;;
17614;SDS011;8926;49.720;6.576;2023-12-22T03:31:39;3.77;;;1.07;;
17614;SDS011;8926;49.720;6.576;2023-12-22T03:34:04;3.50;;;1.07;;
17614;SDS011;8926;49.720;6.576;2023-12-22T03:36:29;2.07;;;1.20;;
17614;SDS011;8926;49.720;6.576;2023-12-22T03:38:55;2.73;;;1.40;;
17614;SDS011;8926;49.720;6.576;2023-12-22T03:41:20;2.23;;;1.10;;
17614;SDS011;8926;49.720;6.576;2023-12-22T03:43:45;3.27;;;1.33;;
17614;SDS011;8926;49.720;6.576;2023-12-22T03:46:10;5.63;;;1.63;;
17614;SDS011;8926;49.720;6.576;2023-12-22T03:48:36;2.83;;;1.50;;
17614;SDS011;8926;49.720;6.576;2023-12-22T03:51:01;4.60;;;1.93;;
17614;SDS011;8926;49.720;6.576;2023-12-22T03:53:26;4.70;;;1.53;;
17614;SDS011;8926;49.720;6.576;2023-12-22T03:55:52;3.03;;;1.50;;
17614;SDS011;8926;49.720;6.576;2023-12-22T03:58:17;3.63;;;1.70;;
17614;SDS011;8926;49.720;6.576;2023-12-22T04:00:42;5.50;;;1.87;;
17614;SDS011;8926;49.720;6.576;2023-12-22T04:03:07;4.00;;;1.70;;
17614;SDS011;8926;49.720;6.576;2023-12-22T04:05:33;4.30;;;1.70;;
17614;SDS011;8926;49.720;6.576;2023-12-22T04:07:58;3.63;;;1.83;;
17614;SDS011;8926;49.720;6.576;2023-12-22T04:10:23;5.50;;;2.87;;
17614;SDS011;8926;49.720;6.576;2023-12-22T04:12:49;5.40;;;2.13;;
17614;SDS011;8926;49.720;6.576;2023-12-22T04:15:14;4.33;;;1.60;;
17614;SDS011;8926;49.720;6.576;2023-12-22T04:17:39;4.43;;;1.60;;
17614;SDS011;8926;49.720;6.576;2023-12-22T04:20:05;5.67;;;1.93;;
17614;SDS011;8926;49.720;6.576;2023-12-22T04:22:32;5.63;;;2.00;;
17614;SDS011;8926;49.720;6.576;2023-12-22T04:24:57;4.20;;;1.80;;
17614;SDS011;8926;49.720;6.576;2023-12-22T04:27:22;6.83;;;2.33;;
17614;SDS011;8926;49.720;6.576;2023-12-22T04:29:47;6.00;;;2.23;;
17614;SDS011;8926;49.720;6.576;2023-12-22T04:32:13;10.83;;;2.67;;
17614;SDS011;8926;49.720;6.576;2023-12-22T04:34:38;5.83;;;2.63;;
17614;SDS011;8926;49.720;6.576;2023-12-22T04:37:03;6.60;;;3.70;;
17614;SDS011;8926;49.720;6.576;2023-12-22T04:39:28;7.47;;;2.70;;
17614;SDS011;8926;49.720;6.576;2023-12-22T04:41:54;3.40;;;2.70;;
17614;SDS011;8926;49.720;6.576;2023-12-22T04:44:19;4.50;;;2.30;;
17614;SDS011;8926;49.720;6.576;2023-12-22T04:46:44;5.57;;;2.20;;
17614;SDS011;8926;49.720;6.576;2023-12-22T04:49:09;3.73;;;1.80;;
17614;SDS011;8926;49.720;6.576;2023-12-22T04:51:35;5.87;;;2.20;;
17614;SDS011;8926;49.720;6.576;2023-12-22T04:54:00;6.03;;;2.13;;
17614;SDS011;8926;49.720;6.576;2023-12-22T04:56:26;3.97;;;1.60;;
17614;SDS011;8926;49.720;6.576;2023-12-22T04:58:51;2.70;;;1.40;;
17614;SDS011;8926;49.720;6.576;2023-12-22T05:01:16;2.03;;;1.00;;
17614;SDS011;8926;49.720;6.576;2023-12-22T05:03:42;1.30;;;0.90;;
17614;SDS011;8926;49.720;6.576;2023-12-22T05:06:08;2.03;;;1.03;;
17614;SDS011;8926;49.720;6.576;2023-12-22T05:08:33;0.80;;;0.70;;
17614;SDS011;8926;49.720;6.576;2023-12-22T05:10:59;3.03;;;0.70;;
17614;SDS011;8926;49.720;6.576;2023-12-22T05:13:25;1.43;;;0.90;;
17614;SDS011;8926;49.720;6.576;2023-12-22T05:15:50;0.90;;;0.70;;
17614;SDS011;8926;49.720;6.576;2023-12-22T05:18:15;3.23;;;0.50;;
17614;SDS011;8926;49.720;6.576;2023-12-22T05:20:41;1.33;;;0.80;;
17614;SDS011;8926;49.720;6.576;2023-12-22T05:23:06;1.53;;;0.70;;
17614;SDS011;8926;49.720;6.576;2023-12-22T05:25:31;2.23;;;0.70;;
17614;SDS011;8926;49.720;6.576;2023-12-22T05:27:56;2.17;;;0.70;;
17614;SDS011;8926;49.720;6.576;2023-12-22T05:30:22;1.57;;;0.80;;
17614;SDS011;8926;49.720;6.576;2023-12-22T05:32:47;3.67;;;1.17;;
17614;SDS011;8926;49.720;6.576;2023-12-22T05:35:13;1.80;;;0.80;;
17614;SDS011;8926;49.720;6.576;2023-12-22T05:37:38;1.03;;;0.70;;
17614;SDS011;8926;49.720;6.576;2023-12-22T05:40:04;1.90;;;0.90;;
17614;SDS011;8926;49.720;6.576;2023-12-22T05:42:31;1.17;;;0.80;;
17614;SDS011;8926;49.720;6.576;2023-12-22T05:44:57;1.53;;;1.30;;
17614;SDS011;8926;49.720;6.576;2023-12-22T05:47:23;3.03;;;1.50;;
17614;SDS011;8926;49.720;6.576;2023-12-22T05:49:48;2.43;;;1.50;;
17614;SDS011;8926;49.720;6.576;2023-12-22T05:52:14;2.33;;;1.47;;
17614;SDS011;8926;49.720;6.576;2023-12-22T05:54:39;2.93;;;1.40;;
17614;SDS011;8926;49.720;6.576;2023-12-22T05:57:05;2.30;;;0.90;;
17614;SDS011;8926;49.720;6.576;2023-12-22T05:59:31;1.97;;;0.90;;
17614;SDS011;8926;49.720;6.576;2023-12-22T06:01:57;3.70;;;1.17;;
17614;SDS011;8926;49.720;6.576;2023-12-22T06:04:26;3.37;;;1.10;;
17614;SDS011;8926;49.720;6.576;2023-12-22T06:06:51;3.03;;;1.10;;
17614;SDS011;8926;49.720;6.576;2023-12-22T06:09:17;2.20;;;1.00;;
17614;SDS011;8926;49.720;6.576;2023-12-22T06:11:47;2.17;;;1.07;;
17614;SDS011;8926;49.720;6.576;2023-12-22T06:14:12;2.60;;;1.40;;
17614;SDS011;8926;49.720;6.576;2023-12-22T06:16:38;2.40;;;1.13;;
17614;SDS011;8926;49.720;6.576;2023-12-22T06:19:03;2.77;;;1.37;;
17614;SDS011;8926;49.720;6.576;2023-12-22T06:21:29;2.90;;;1.53;;
17614;SDS011;8926;49.720;6.576;2023-12-22T06:23:54;1.27;;;1.07;;
17614;SDS011;8926;49.720;6.576;2023-12-22T06:26:19;2.60;;;1.20;;
17614;SDS011;8926;49.720;6.576;2023-12-22T06:28:45;2.50;;;1.20;;
17614;SDS011;8926;49.720;6.576;2023-12-22T06:31:17;3.47;;;1.60;;
17614;SDS011;8926;49.720;6.576;2023-12-22T06:33:43;2.23;;;1.30;;
17614;SDS011;8926;49.720;6.576;2023-12-22T06:36:17;3.90;;;1.03;;
17614;SDS011;8926;49.720;6.576;2023-12-22T06:38:50;2.33;;;1.23;;
17614;SDS011;8926;49.720;6.576;2023-12-22T06:41:19;2.50;;;1.40;;
17614;SDS011;8926;49.720;6.576;2023-12-22T06:43:45;3.10;;;1.40;;
17614;SDS011;8926;49.720;6.576;2023-12-22T06:46:17;2.37;;;1.10;;
17614;SDS011;8926;49.720;6.576;2023-12-22T06:48:43;2.10;;;1.40;;
17614;SDS011;8926;49.720;6.576;2023-12-22T06:51:16;2.60;;;1.43;;
17614;SDS011;8926;49.720;6.576;2023-12-22T06:54:02;2.40;;;1.30;;
17614;SDS011;8926;49.720;6.576;2023-12-22T06:56:30;3.10;;;1.33;;
17614;SDS011;8926;49.720;6.576;2023-12-22T06:58:57;6.53;;;2.30;;
17614;SDS011;8926;49.720;6.576;2023-12-22T07:01:27;4.97;;;1.63;;
17614;SDS011;8926;49.720;6.576;2023-12-22T07:03:54;2.87;;;1.60;;
17614;SDS011;8926;49.720;6.576;2023-12-22T07:06:20;4.03;;;2.33;;
17614;SDS011;8926;49.720;6.576;2023-12-22T07:11:53;5.47;;;2.23;;
17614;SDS011;8926;49.720;6.576;2023-12-22T07:14:19;15.80;;;8.10;;
17614;SDS011;8926;49.720;6.576;2023-12-22T07:16:44;10.03;;;4.70;;
17614;SDS011;8926;49.720;6.576;2023-12-22T07:19:10;7.43;;;3.43;;
17614;SDS011;8926;49.720;6.576;2023-12-22T07:21:38;11.40;;;3.60;;
17614;SDS011;8926;49.720;6.576;2023-12-22T07:24:03;6.43;;;3.00;;
17614;SDS011;8926;49.720;6.576;2023-12-22T07:26:29;6.83;;;2.67;;
17614;SDS011;8926;49.720;6.576;2023-12-22T07:28:54;5.50;;;2.40;;
17614;SDS011;8926;49.720;6.576;2023-12-22T07:31:20;9.30;;;3.03;;
17614;SDS011;8926;49.720;6.576;2023-12-22T07:33:45;9.67;;;3.27;;
17614;SDS011;8926;49.720;6.576;2023-12-22T07:36:10;9.20;;;3.87;;
17614;SDS011;8926;49.720;6.576;2023-12-22T07:38:36;7.70;;;4.03;;
17614;SDS011;8926;49.720;6.576;2023-12-22T07:41:04;8.67;;;3.97;;
17614;SDS011;8926;49.720;6.576;2023-12-22T07:43:29;8.87;;;3.67;;
17614;SDS011;8926;49.720;6.576;2023-12-22T07:45:55;14.27;;;5.07;;
17614;SDS011;8926;49.720;6.576;2023-12-22T07:48:20;8.37;;;3.80;;
17614;SDS011;8926;49.720;6.576;2023-12-22T07:50:45;13.17;;;5.57;;
17614;SDS011;8926;49.720;6.576;2023-12-22T07:53:11;12.87;;;5.17;;
17614;SDS011;8926;49.720;6.576;2023-12-22T07:55:36;15.67;;;4.80;;
17614;SDS011;8926;49.720;6.576;2023-12-22T07:58:03;12.97;;;4.90;;
17614;SDS011;8926;49.720;6.576;2023-12-22T08:00:29;8.63;;;3.23;;
17614;SDS011;8926;49.720;6.576;2023-12-22T08:02:54;11.07;;;3.73;;
17614;SDS011;8926;49.720;6.576;2023-12-22T08:05:19;16.10;;;4.73;;
17614;SDS011;8926;49.720;6.576;2023-12-22T08:07:45;10.30;;;4.20;;
17614;SDS011;8926;49.720;6.576;2023-12-22T08:10:10;16.40;;;4.90;;
17614;SDS011;8926;49.720;6.576;2023-12-22T08:12:36;13.63;;;4.70;;
17614;SDS011;8926;49.720;6.576;2023-12-22T08:15:01;15.00;;;4.70;;
17614;SDS011;8926;49.720;6.576;2023-12-22T08:17:27;17.83;;;5.23;;
17614;SDS011;8926;49.720;6.576;2023-12-22T08:19:52;10.53;;;3.63;;
17614;SDS011;8926;49.720;6.576;2023-12-22T08:22:18;10.03;;;3.43;;
17614;SDS011;8926;49.720;6.576;2023-12-22T08:24:43;13.43;;;4.53;;
17614;SDS011;8926;49.720;6.576;2023-12-22T08:27:08;13.10;;;3.90;;
17614;SDS011;8926;49.720;6.576;2023-12-22T08:29:34;13.57;;;3.77;;
17614;SDS011;8926;49.720;6.576;2023-12-22T08:31:59;11.47;;;4.17;;
17614;SDS011;8926;49.720;6.576;2023-12-22T08:34:27;11.30;;;4.17;;
17614;SDS011;8926;49.720;6.576;2023-12-22T08:36:52;6.87;;;2.67;;
17614;SDS011;8926;49.720;6.576;2023-12-22T08:39:18;8.47;;;3.10;;
17614;SDS011;8926;49.720;6.576;2023-12-22T08:41:43;10.10;;;2.90;;
17614;SDS011;8926;49.720;6.576;2023-12-22T08:44:09;8.67;;;3.50;;
17614;SDS011;8926;49.720;6.576;2023-12-22T08:46:35;13.63;;;3.80;;
17614;SDS011;8926;49.720;6.576;2023-12-22T08:49:00;10.53;;;3.80;;
17614;SDS011;8926;49.720;6.576;2023-12-22T08:51:27;16.63;;;4.87;;
17614;SDS011;8926;49.720;6.576;2023-12-22T08:53:53;15.30;;;4.33;;
17614;SDS011;8926;49.720;6.576;2023-12-22T08:56:22;8.60;;;4.23;;
17614;SDS011;8926;49.720;6.576;2023-12-22T08:58:48;12.93;;;4.00;;
17614;SDS011;8926;49.720;6.576;2023-12-22T09:01:16;8.97;;;3.17;;
17614;SDS011;8926;49.720;6.576;2023-12-22T09:03:42;6.77;;;2.77;;
17614;SDS011;8926;49.720;6.576;2023-12-22T09:06:20;6.93;;;3.17;;
17614;SDS011;8926;49.720;6.576;2023-12-22T09:08:47;8.67;;;3.17;;
17614;SDS011;8926;49.720;6.576;2023-12-22T09:11:13;6.70;;;2.93;;
17614;SDS011;8926;49.720;6.576;2023-12-22T09:13:40;12.37;;;3.90;;
17614;SDS011;8926;49.720;6.576;2023-12-22T09:16:07;10.67;;;3.93;;
17614;SDS011;8926;49.720;6.576;2023-12-22T09:18:33;14.30;;;4.07;;
17614;SDS011;8926;49.720;6.576;2023-12-22T09:20:58;6.60;;;3.27;;
17614;SDS011;8926;49.720;6.576;2023-12-22T09:23:24;6.70;;;3.30;;
17614;SDS011;8926;49.720;6.576;2023-12-22T09:25:49;8.47;;;3.17;;
17614;SDS011;8926;49.720;6.576;2023-12-22T09:28:15;9.23;;;2.73;;
17614;SDS011;8926;49.720;6.576;2023-12-22T09:30:40;9.10;;;3.47;;
17614;SDS011;8926;49.720;6.576;2023-12-22T09:33:06;10.87;;;3.03;;
17614;SDS011;8926;49.720;6.576;2023-12-22T09:35:32;9.13;;;3.10;;
17614;SDS011;8926;49.720;6.576;2023-12-22T09:37:58;11.17;;;3.60;;
17614;SDS011;8926;49.720;6.576;2023-12-22T09:40:23;14.07;;;3.53;;
17614;SDS011;8926;49.720;6.576;2023-12-22T09:42:49;8.90;;;3.10;;
17614;SDS011;8926;49.720;6.576;2023-12-22T09:45:16;9.00;;;2.93;;
17614;SDS011;8926;49.720;6.576;2023-12-22T09:47:45;7.33;;;2.57;;
17614;SDS011;8926;49.720;6.576;2023-12-22T09:50:11;10.87;;;3.87;;
17614;SDS011;8926;49.720;6.576;2023-12-22T09:52:38;9.70;;;2.87;;
17614;SDS011;8926;49.720;6.576;2023-12-22T09:55:07;9.43;;;3.60;;
17614;SDS011;8926;49.720;6.576;2023-12-22T09:57:32;10.53;;;3.27;;
17614;SDS011;8926;49.720;6.576;2023-12-22T09:59:59;5.30;;;2.33;;
17614;SDS011;8926;49.720;6.576;2023-12-22T10:02:25;6.43;;;2.47;;
17614;SDS011;8926;49.720;6.576;2023-12-22T10:04:52;8.43;;;3.17;;
17614;SDS011;8926;49.720;6.576;2023-12-22T10:07:18;5.43;;;2.07;;
17614;SDS011;8926;49.720;6.576;2023-12-22T10:09:45;9.93;;;3.10;;
17614;SDS011;8926;49.720;6.576;2023-12-22T10:12:12;6.27;;;2.40;;
17614;SDS011;8926;49.720;6.576;2023-12-22T10:14:39;4.13;;;1.80;;
17614;SDS011;8926;49.720;6.576;2023-12-22T10:17:05;12.37;;;4.87;;
17614;SDS011;8926;49.720;6.576;2023-12-22T10:19:30;33.20;;;13.60;;
17614;SDS011;8926;49.720;6.576;2023-12-22T10:21:56;13.97;;;6.63;;
17614;SDS011;8926;49.720;6.576;2023-12-22T10:27:02;12.03;;;6.63;;
17614;SDS011;8926;49.720;6.576;2023-12-22T10:29:27;7.17;;;4.33;;
17614;SDS011;8926;49.720;6.576;2023-12-22T10:31:53;12.33;;;6.03;;
17614;SDS011;8926;49.720;6.576;2023-12-22T10:34:18;7.07;;;3.93;;
17614;SDS011;8926;49.720;6.576;2023-12-22T10:36:43;3.10;;;1.70;;
17614;SDS011;8926;49.720;6.576;2023-12-22T10:39:09;3.47;;;1.27;;
17614;SDS011;8926;49.720;6.576;2023-12-22T10:41:34;3.47;;;1.13;;
17614;SDS011;8926;49.720;6.576;2023-12-22T10:44:00;4.77;;;1.10;;
17614;SDS011;8926;49.720;6.576;2023-12-22T10:46:25;2.50;;;1.03;;
17614;SDS011;8926;49.720;6.576;2023-12-22T10:48:52;4.07;;;1.60;;
17614;SDS011;8926;49.720;6.576;2023-12-22T10:51:18;3.70;;;1.40;;
17614;SDS011;8926;49.720;6.576;2023-12-22T10:53:43;1.93;;;1.13;;
17614;SDS011;8926;49.720;6.576;2023-12-22T10:56:09;1.93;;;0.80;;
17614;SDS011;8926;49.720;6.576;2023-12-22T10:58:36;1.50;;;0.90;;
17614;SDS011;8926;49.720;6.576;2023-12-22T11:01:04;1.40;;;0.87;;
17614;SDS011;8926;49.720;6.576;2023-12-22T11:03:32;2.40;;;1.00;;
17614;SDS011;8926;49.720;6.576;2023-12-22T11:06:01;2.80;;;1.30;;
17614;SDS011;8926;49.720;6.576;2023-12-22T11:08:31;1.27;;;0.67;;
17614;SDS011;8926;49.720;6.576;2023-12-22T11:11:00;1.73;;;0.90;;
17614;SDS011;8926;49.720;6.576;2023-12-22T11:13:34;1.87;;;0.80;;
17614;SDS011;8926;49.720;6.576;2023-12-22T11:16:00;0.87;;;0.87;;
17614;SDS011;8926;49.720;6.576;2023-12-22T11:18:26;3.87;;;3.13;;
17614;SDS011;8926;49.720;6.576;2023-12-22T11:20:53;4.73;;;2.80;;
17614;SDS011;8926;49.720;6.576;2023-12-22T11:23:19;1.50;;;1.40;;
17614;SDS011;8926;49.720;6.576;2023-12-22T11:25:46;1.17;;;1.00;;
17614;SDS011;8926;49.720;6.576;2023-12-22T11:28:16;1.17;;;1.07;;
17614;SDS011;8926;49.720;6.576;2023-12-22T11:30:43;1.93;;;1.20;;
17614;SDS011;8926;49.720;6.576;2023-12-22T11:33:10;1.50;;;1.03;;
17614;SDS011;8926;49.720;6.576;2023-12-22T11:35:37;4.27;;;3.87;;
17614;SDS011;8926;49.720;6.576;2023-12-22T11:38:03;1.73;;;1.20;;
17614;SDS011;8926;49.720;6.576;2023-12-22T11:40:30;1.33;;;0.87;;
17614;SDS011;8926;49.720;6.576;2023-12-22T11:42:56;1.00;;;0.90;;
17614;SDS011;8926;49.720;6.576;2023-12-22T11:45:22;0.73;;;0.70;;
17614;SDS011;8926;49.720;6.576;2023-12-22T11:47:49;0.57;;;0.57;;
17614;SDS011;8926;49.720;6.576;2023-12-22T11:50:27;1.77;;;0.83;;
17614;SDS011;8926;49.720;6.576;2023-12-22T11:52:55;1.57;;;1.20;;
17614;SDS011;8926;49.720;6.576;2023-12-22T11:58:35;0.70;;;0.70;;
17614;SDS011;8926;49.720;6.576;2023-12-22T12:01:06;1.10;;;1.00;;
17614;SDS011;8926;49.720;6.576;2023-12-22T12:03:35;1.17;;;1.10;;
17614;SDS011;8926;49.720;6.576;2023-12-22T12:06:13;3.53;;;3.00;;
17614;SDS011;8926;49.720;6.576;2023-12-22T12:08:39;4.30;;;3.90;;
17614;SDS011;8926;49.720;6.576;2023-12-22T12:11:05;4.30;;;4.00;;
17614;SDS011;8926;49.720;6.576;2023-12-22T12:13:31;2.23;;;2.10;;
17614;SDS011;8926;49.720;6.576;2023-12-22T12:15:58;2.00;;;1.90;;
17614;SDS011;8926;49.720;6.576;2023-12-22T12:18:29;2.77;;;2.53;;
17614;SDS011;8926;49.720;6.576;2023-12-22T12:20:56;4.00;;;3.47;;
17614;SDS011;8926;49.720;6.576;2023-12-22T12:23:25;3.67;;;3.37;;
17614;SDS011;8926;49.720;6.576;2023-12-22T12:25:51;2.33;;;2.20;;
17614;SDS011;8926;49.720;6.576;2023-12-22T12:28:18;2.17;;;2.03;;
17614;SDS011;8926;49.720;6.576;2023-12-22T12:30:52;1.70;;;1.60;;
17614;SDS011;8926;49.720;6.576;2023-12-22T12:33:23;1.47;;;1.37;;
17614;SDS011;8926;49.720;6.576;2023-12-22T12:35:50;1.83;;;1.73;;
17614;SDS011;8926;49.720;6.576;2023-12-22T12:38:18;1.80;;;1.40;;
17614;SDS011;8926;49.720;6.576;2023-12-22T12:40:48;3.03;;;2.83;;
17614;SDS011;8926;49.720;6.576;2023-12-22T12:43:16;3.57;;;3.27;;
17614;SDS011;8926;49.720;6.576;2023-12-22T12:45:42;2.70;;;2.50;;
17614;SDS011;8926;49.720;6.576;2023-12-22T12:48:08;4.07;;;3.33;;
17614;SDS011;8926;49.720;6.576;2023-12-22T12:50:33;6.60;;;5.83;;
17614;SDS011;8926;49.720;6.576;2023-12-22T12:52:59;3.40;;;3.03;;
17614;SDS011;8926;49.720;6.576;2023-12-22T12:55:25;2.67;;;2.20;;
17614;SDS011;8926;49.720;6.576;2023-12-22T12:57:54;4.30;;;3.63;;
17614;SDS011;8926;49.720;6.576;2023-12-22T13:00:26;4.17;;;3.60;;
17614;SDS011;8926;49.720;6.576;2023-12-22T13:02:53;8.60;;;7.70;;
17614;SDS011;8926;49.720;6.576;2023-12-22T13:05:23;5.30;;;4.80;;
17614;SDS011;8926;49.720;6.576;2023-12-22T13:07:49;7.87;;;6.70;;
17614;SDS011;8926;49.720;6.576;2023-12-22T13:10:20;5.83;;;4.70;;
17614;SDS011;8926;49.720;6.576;2023-12-22T13:12:47;5.00;;;4.60;;
17614;SDS011;8926;49.720;6.576;2023-12-22T13:15:12;2.83;;;2.60;;
17614;SDS011;8926;49.720;6.576;2023-12-22T13:17:37;1.87;;;1.77;;
17614;SDS011;8926;49.720;6.576;2023-12-22T13:20:03;3.30;;;3.10;;
17614;SDS011;8926;49.720;6.576;2023-12-22T13:22:28;4.17;;;3.87;;
17614;SDS011;8926;49.720;6.576;2023-12-22T13:24:57;4.43;;;4.03;;
17614;SDS011;8926;49.720;6.576;2023-12-22T13:27:25;2.77;;;2.57;;
17614;SDS011;8926;49.720;6.576;2023-12-22T13:29:50;1.17;;;0.60;;
17614;SDS011;8926;49.720;6.576;2023-12-22T13:32:21;3.00;;;2.10;;
17614;SDS011;8926;49.720;6.576;2023-12-22T13:34:50;2.30;;;1.90;;
17614;SDS011;8926;49.720;6.576;2023-12-22T13:37:17;1.10;;;1.00;;
17614;SDS011;8926;49.720;6.576;2023-12-22T13:39:43;1.83;;;0.63;;
17614;SDS011;8926;49.720;6.576;2023-12-22T13:42:16;1.23;;;1.10;;
17614;SDS011;8926;49.720;6.576;2023-12-22T13:44:45;1.77;;;1.10;;
17614;SDS011;8926;49.720;6.576;2023-12-22T13:47:14;0.93;;;0.63;;
17614;SDS011;8926;49.720;6.576;2023-12-22T13:49:41;1.67;;;1.30;;
17614;SDS011;8926;49.720;6.576;2023-12-22T13:52:08;1.83;;;1.63;;
17614;SDS011;8926;49.720;6.576;2023-12-22T13:54:33;2.37;;;1.80;;
17614;SDS011;8926;49.720;6.576;2023-12-22T13:56:59;1.40;;;1.30;;
17614;SDS011;8926;49.720;6.576;2023-12-22T13:59:34;1.10;;;1.00;;
17614;SDS011;8926;49.720;6.576;2023-12-22T14:02:00;2.10;;;1.40;;
17614;SDS011;8926;49.720;6.576;2023-12-22T14:04:28;2.20;;;2.00;;
17614;SDS011;8926;49.720;6.576;2023-12-22T14:06:54;1.63;;;1.53;;
17614;SDS011;8926;49.720;6.576;2023-12-22T14:09:19;1.50;;;0.97;;
17614;SDS011;8926;49.720;6.576;2023-12-22T14:11:49;1.50;;;0.97;;
17614;SDS011;8926;49.720;6.576;2023-12-22T14:14:14;1.37;;;1.27;;
17614;SDS011;8926;49.720;6.576;2023-12-22T14:16:40;1.33;;;1.23;;
17614;SDS011;8926;49.720;6.576;2023-12-22T14:19:05;1.13;;;0.90;;
17614;SDS011;8926;49.720;6.576;2023-12-22T14:21:31;0.90;;;0.90;;
17614;SDS011;8926;49.720;6.576;2023-12-22T14:23:56;0.70;;;0.70;;
17614;SDS011;8926;49.720;6.576;2023-12-22T14:26:21;0.70;;;0.70;;
17614;SDS011;8926;49.720;6.576;2023-12-22T14:28:47;1.00;;;0.90;;
17614;SDS011;8926;49.720;6.576;2023-12-22T14:31:15;0.90;;;0.80;;
17614;SDS011;8926;49.720;6.576;2023-12-22T14:33:41;1.00;;;1.00;;
17614;SDS011;8926;49.720;6.576;2023-12-22T14:36:06;0.50;;;0.50;;
17614;SDS011;8926;49.720;6.576;2023-12-22T14:38:31;1.73;;;0.90;;
17614;SDS011;8926;49.720;6.576;2023-12-22T14:40:57;2.50;;;0.60;;
17614;SDS011;8926;49.720;6.576;2023-12-22T14:43:22;1.23;;;0.50;;
17614;SDS011;8926;49.720;6.576;2023-12-22T14:45:47;0.70;;;0.50;;
17614;SDS011;8926;49.720;6.576;2023-12-22T14:48:12;0.63;;;0.60;;
17614;SDS011;8926;49.720;6.576;2023-12-22T14:50:38;0.37;;;0.30;;
17614;SDS011;8926;49.720;6.576;2023-12-22T14:53:03;1.13;;;1.07;;
17614;SDS011;8926;49.720;6.576;2023-12-22T14:55:28;1.23;;;1.00;;
17614;SDS011;8926;49.720;6.576;2023-12-22T14:57:54;1.13;;;0.83;;
17614;SDS011;8926;49.720;6.576;2023-12-22T15:00:19;2.00;;;0.90;;
17614;SDS011;8926;49.720;6.576;2023-12-22T15:02:44;1.03;;;0.50;;
17614;SDS011;8926;49.720;6.576;2023-12-22T15:05:10;0.50;;;0.50;;